createdAt,value
2019-04-05T00:00:26.751Z,3.70
2019-04-05T00:03:00.942Z,3.51
2019-04-05T00:05:37.432Z,3.22
2019-04-05T00:08:11.482Z,3.17
2019-04-05T00:10:45.586Z,3.27
2019-04-05T00:13:20.198Z,3.54
2019-04-05T00:15:54.566Z,3.62
2019-04-05T00:18:29.178Z,3.71
2019-04-05T00:21:03.170Z,3.65
2019-04-05T00:23:38.002Z,3.71
2019-04-05T00:26:12.214Z,3.91
2019-04-05T00:28:45.967Z,4.21
2019-04-05T00:31:19.920Z,4.20
2019-04-05T00:33:53.842Z,3.83
2019-04-05T00:36:28.150Z,4.22
2019-04-05T00:39:02.305Z,3.94
2019-04-05T00:41:37.190Z,3.72
2019-04-05T00:44:11.041Z,3.69
2019-04-05T00:46:48.116Z,3.90
2019-04-05T00:49:22.908Z,4.11
2019-04-05T00:51:57.241Z,4.31
2019-04-05T00:54:32.116Z,4.30
2019-04-05T00:57:06.996Z,4.32
2019-04-05T00:59:42.633Z,4.23
2019-04-05T01:02:16.398Z,4.40
2019-04-05T01:04:50.292Z,4.37
2019-04-05T01:07:23.969Z,4.20
2019-04-05T01:09:57.604Z,4.48
2019-04-05T01:12:32.982Z,4.50
2019-04-05T01:15:09.428Z,5.26
2019-04-05T01:17:45.776Z,5.13
2019-04-05T01:20:43.744Z,5.40
2019-04-05T01:23:19.450Z,5.12
2019-04-05T01:25:59.421Z,5.16
2019-04-05T01:28:53.949Z,5.12
2019-04-05T01:31:32.043Z,5.01
2019-04-05T01:34:06.862Z,4.65
2019-04-05T01:36:41.551Z,4.72
2019-04-05T01:39:25.232Z,4.73
2019-04-05T01:42:03.952Z,4.84
2019-04-05T01:44:39.148Z,4.88
2019-04-05T01:47:14.151Z,4.74
2019-04-05T01:49:49.115Z,4.72
2019-04-05T01:52:24.400Z,5.05
2019-04-05T01:54:59.796Z,5.01
2019-04-05T01:57:36.903Z,4.93
2019-04-05T02:00:15.154Z,4.76
2019-04-05T02:02:49.788Z,4.81
2019-04-05T02:05:24.208Z,5.00
2019-04-05T02:07:58.277Z,4.96
2019-04-05T02:10:32.613Z,4.99
2019-04-05T02:13:06.706Z,5.05
2019-04-05T02:15:41.079Z,5.22
2019-04-05T02:18:15.109Z,5.55
2019-04-05T02:20:49.649Z,5.69
2019-04-05T02:23:25.131Z,5.84
2019-04-05T02:25:59.559Z,5.79
2019-04-05T02:28:34.365Z,5.61
2019-04-05T02:31:08.266Z,5.37
2019-04-05T02:33:42.543Z,5.24
2019-04-05T02:36:16.985Z,5.47
2019-04-05T02:38:52.205Z,5.80
2019-04-05T02:41:27.971Z,6.17
2019-04-05T02:44:03.027Z,6.30
2019-04-05T02:46:37.333Z,6.42
2019-04-05T02:49:12.816Z,6.48
2019-04-05T02:51:49.945Z,6.31
2019-04-05T02:54:24.815Z,6.54
2019-04-05T02:57:00.161Z,6.34
2019-04-05T02:59:40.329Z,6.41
2019-04-05T03:02:17.343Z,6.43
2019-04-05T03:04:54.652Z,7.13
2019-04-05T03:07:32.073Z,7.42
2019-04-05T03:10:09.020Z,7.19
2019-04-05T03:12:50.616Z,7.30
2019-04-05T03:15:24.431Z,7.55
2019-04-05T03:17:58.375Z,7.95
2019-04-05T03:20:33.457Z,7.70
2019-04-05T03:23:08.331Z,7.57
2019-04-05T03:25:42.429Z,7.69
2019-04-05T03:28:19.163Z,6.97
2019-04-05T03:30:55.279Z,7.24
2019-04-05T03:33:30.997Z,7.40
2019-04-05T03:36:06.456Z,7.21
2019-04-05T03:38:40.865Z,7.69
2019-04-05T03:41:16.068Z,7.55
2019-04-05T03:43:51.431Z,7.65
2019-04-05T03:46:26.861Z,8.04
2019-04-05T03:49:03.432Z,8.38
2019-04-05T03:51:38.054Z,8.98
2019-04-05T03:54:12.340Z,8.64
2019-04-05T03:56:47.052Z,8.65
2019-04-05T03:59:22.542Z,8.94
2019-04-05T04:02:00.843Z,9.18
2019-04-05T04:04:35.972Z,8.19
2019-04-05T04:07:11.328Z,8.50
2019-04-05T04:09:49.064Z,8.65
2019-04-05T04:12:26.936Z,8.78
2019-04-05T04:15:01.644Z,9.19
2019-04-05T04:17:36.843Z,9.19
2019-04-05T04:20:13.639Z,8.78
2019-04-05T04:22:48.633Z,8.99
2019-04-05T04:25:22.946Z,9.47
2019-04-05T04:27:57.065Z,9.72
2019-04-05T04:30:32.404Z,9.80
2019-04-05T04:33:07.686Z,10.43
2019-04-05T04:35:42.117Z,10.56
2019-04-05T04:38:18.811Z,9.95
2019-04-05T04:40:54.442Z,10.08
2019-04-05T04:43:32.346Z,9.71
2019-04-05T04:46:05.008Z,10.54
2019-04-05T04:48:41.018Z,11.08
2019-04-05T04:51:16.146Z,11.51
2019-04-05T04:53:51.668Z,11.20
2019-04-05T04:56:29.072Z,10.80
2019-04-05T04:59:03.115Z,10.80
2019-04-05T05:01:37.343Z,10.95
2019-04-05T05:04:12.051Z,11.01
2019-04-05T05:06:46.272Z,11.40
2019-04-05T05:09:21.964Z,11.92
2019-04-05T05:11:55.979Z,12.15
2019-04-05T05:14:30.397Z,10.73
2019-04-05T05:17:06.348Z,11.03
2019-04-05T05:19:40.368Z,10.82
2019-04-05T05:22:14.162Z,10.14
2019-04-05T05:24:48.398Z,10.45
2019-04-05T05:27:22.459Z,10.80
2019-04-05T05:29:57.714Z,10.42
2019-04-05T05:32:33.001Z,10.09
2019-04-05T05:35:13.241Z,10.10
2019-04-05T05:37:48.927Z,10.76
2019-04-05T05:40:34.627Z,11.11
2019-04-05T05:43:02.702Z,11.56
2019-04-05T05:45:37.103Z,11.38
2019-04-05T05:48:13.494Z,10.79
2019-04-05T05:50:48.428Z,11.17
2019-04-05T05:53:22.696Z,11.07
2019-04-05T05:56:02.070Z,11.09
2019-04-05T05:58:55.321Z,11.02
2019-04-05T06:01:31.060Z,11.29
2019-04-05T06:04:14.405Z,11.51
2019-04-05T06:06:48.510Z,10.79
2019-04-05T06:09:22.369Z,10.61
2019-04-05T06:11:56.057Z,10.46
2019-04-05T06:14:30.040Z,10.14
2019-04-05T06:17:07.327Z,10.24
2019-04-05T06:19:41.861Z,9.81
2019-04-05T06:22:15.558Z,9.18
2019-04-05T06:24:49.356Z,9.40
2019-04-05T06:27:24.078Z,9.39
2019-04-05T06:29:57.971Z,9.75
2019-04-05T06:32:32.212Z,9.65
2019-04-05T06:35:07.727Z,9.49
2019-04-05T06:37:41.856Z,10.30
2019-04-05T06:40:16.390Z,10.30
2019-04-05T06:42:52.481Z,11.01
2019-04-05T06:45:27.079Z,10.96
2019-04-05T06:48:00.831Z,10.94
2019-04-05T06:50:34.506Z,10.64
2019-04-05T06:53:11.456Z,10.62
2019-04-05T06:55:45.506Z,10.76
2019-04-05T06:58:28.556Z,10.66
2019-04-05T07:00:57.272Z,10.56
2019-04-05T07:06:08.103Z,10.89
2019-04-05T07:08:53.055Z,10.92
2019-04-05T07:11:18.629Z,10.52
2019-04-05T07:13:52.353Z,10.36
2019-04-05T07:16:26.276Z,10.58
2019-04-05T07:19:03.428Z,10.49
2019-04-05T07:21:37.629Z,10.64
2019-04-05T07:24:11.198Z,10.17
2019-04-05T07:26:44.999Z,10.23
2019-04-05T07:29:22.571Z,9.89
2019-04-05T07:31:56.607Z,10.12
2019-04-05T07:34:30.344Z,10.03
2019-04-05T07:37:03.967Z,10.07
2019-04-05T07:39:37.988Z,9.46
2019-04-05T07:42:11.712Z,9.64
2019-04-05T07:44:45.277Z,9.57
2019-04-05T07:47:18.941Z,9.34
2019-04-05T07:49:52.400Z,9.24
2019-04-05T07:52:26.558Z,9.25
2019-04-05T07:55:03.689Z,9.88
2019-04-05T07:57:37.678Z,9.82
2019-04-05T08:00:13.746Z,9.91
2019-04-05T08:02:48.228Z,9.85
2019-04-05T08:05:22.174Z,9.78
2019-04-05T08:07:56.454Z,10.06
2019-04-05T08:10:31.697Z,10.55
2019-04-05T08:13:08.975Z,10.38
2019-04-05T08:15:47.433Z,10.20
2019-04-05T08:18:21.699Z,9.78
2019-04-05T08:21:07.388Z,9.29
2019-04-05T08:23:47.588Z,9.41
2019-04-05T08:26:23.216Z,9.80
2019-04-05T08:28:58.487Z,10.18
2019-04-05T08:31:33.923Z,10.47
2019-04-05T08:34:07.661Z,9.85
2019-04-05T08:36:41.665Z,9.73
2019-04-05T08:39:15.736Z,9.66
2019-04-05T08:41:49.467Z,9.37
2019-04-05T08:44:42.929Z,9.60
2019-04-05T08:47:18.535Z,9.63
2019-04-05T08:49:52.354Z,9.46
2019-04-05T08:52:27.107Z,9.51
2019-04-05T08:55:01.100Z,9.23
2019-04-05T08:57:37.580Z,9.32
2019-04-05T09:00:11.461Z,9.12
2019-04-05T09:02:45.789Z,9.05
2019-04-05T09:05:20.721Z,9.06
2019-04-05T09:07:54.355Z,8.92
2019-04-05T09:10:28.186Z,8.70
2019-04-05T09:13:02.214Z,8.73
2019-04-05T09:15:36.100Z,8.59
2019-04-05T09:18:10.339Z,8.68
2019-04-05T09:20:44.952Z,8.70
2019-04-05T09:23:19.087Z,8.72
2019-04-05T09:25:54.044Z,8.94
2019-04-05T09:28:29.314Z,8.79
2019-04-05T09:31:03.762Z,8.54
2019-04-05T09:33:38.996Z,8.86
2019-04-05T09:36:13.284Z,8.63
2019-04-05T09:38:47.519Z,8.64
2019-04-05T09:41:21.818Z,8.58
2019-04-05T09:43:56.399Z,8.57
2019-04-05T09:46:30.756Z,8.26
2019-04-05T09:49:07.317Z,8.22
2019-04-05T09:51:43.588Z,8.26
2019-04-05T09:54:18.851Z,8.35
2019-04-05T09:56:56.789Z,8.23
2019-04-05T09:59:30.902Z,8.16
2019-04-05T10:02:06.288Z,8.26
2019-04-05T10:04:39.999Z,8.18
2019-04-05T10:07:14.176Z,7.99
2019-04-05T10:09:50.437Z,7.90
2019-04-05T10:12:25.294Z,8.01
2019-04-05T10:15:10.514Z,7.89
2019-04-05T10:17:45.197Z,7.78
2019-04-05T10:20:22.583Z,7.78
2019-04-05T10:22:56.686Z,7.91
2019-04-05T10:25:30.409Z,7.71
2019-04-05T10:28:04.155Z,7.85
2019-04-05T10:30:40.229Z,7.68
2019-04-05T10:33:14.748Z,7.69
2019-04-05T10:35:49.117Z,7.78
2019-04-05T10:38:23.301Z,7.83
2019-04-05T10:40:57.019Z,7.72
2019-04-05T10:43:30.803Z,7.73
2019-04-05T10:46:05.234Z,7.69
2019-04-05T10:48:39.390Z,7.78
2019-04-05T10:51:13.245Z,7.90
2019-04-05T10:53:48.568Z,7.84
2019-04-05T10:56:22.771Z,7.79
2019-04-05T10:58:56.564Z,7.72
2019-04-05T11:01:31.572Z,7.68
2019-04-05T11:04:07.025Z,7.44
2019-04-05T11:06:41.326Z,7.52
2019-04-05T11:09:15.640Z,7.23
2019-04-05T11:11:50.939Z,7.00
2019-04-05T11:14:25.854Z,6.95
2019-04-05T11:16:59.716Z,7.16
2019-04-05T11:19:36.229Z,6.61
2019-04-05T11:22:08.217Z,6.59
2019-04-05T11:24:43.394Z,6.54
2019-04-05T11:27:17.345Z,6.57
2019-04-05T11:29:51.581Z,6.64
2019-04-05T11:32:25.788Z,6.46
2019-04-05T11:34:59.952Z,6.54
2019-04-05T11:37:33.874Z,6.43
2019-04-05T11:40:11.693Z,6.12
2019-04-05T11:42:48.433Z,6.03
2019-04-05T11:45:22.371Z,5.99
2019-04-05T11:47:58.549Z,6.11
2019-04-05T11:50:35.110Z,5.98
2019-04-05T11:53:08.925Z,6.08
2019-04-05T11:55:42.987Z,5.64
2019-04-05T11:58:18.664Z,5.71
2019-04-05T12:00:52.670Z,5.53
2019-04-05T12:03:26.994Z,5.59
2019-04-05T12:06:01.437Z,5.67
2019-04-05T12:08:35.632Z,5.65
2019-04-05T12:11:09.386Z,5.65
2019-04-05T12:13:43.772Z,5.55
2019-04-05T12:16:19.533Z,5.48
2019-04-05T12:18:53.124Z,5.29
2019-04-05T12:21:28.130Z,5.33
2019-04-05T12:24:04.779Z,5.33
2019-04-05T12:26:39.286Z,5.41
2019-04-05T12:29:13.013Z,5.14
2019-04-05T12:45:15.503Z,4.74
2019-04-05T12:47:51.624Z,4.95
2019-04-05T12:50:25.563Z,4.59
2019-04-05T12:52:59.888Z,4.70
2019-04-05T12:55:34.863Z,4.67
2019-04-05T12:58:10.801Z,4.40
2019-04-05T13:00:47.477Z,4.25
2019-04-05T13:03:21.772Z,4.35
2019-04-05T13:05:57.884Z,4.54
2019-04-05T13:08:32.690Z,4.16
2019-04-05T13:11:08.751Z,4.19
2019-04-05T13:13:43.836Z,4.19
2019-04-05T13:16:19.276Z,3.98
2019-04-05T13:18:55.328Z,4.25
2019-04-05T13:21:32.227Z,4.19
2019-04-05T13:24:09.438Z,4.00
2019-04-05T13:26:42.739Z,3.86
2019-04-05T13:29:19.662Z,3.78
2019-04-05T13:31:55.491Z,4.04
2019-04-05T13:34:31.171Z,4.05
2019-04-05T13:37:05.331Z,3.97
2019-04-05T13:39:41.218Z,3.78
2019-04-05T13:42:15.515Z,4.01
2019-04-05T13:44:49.994Z,3.97
2019-04-05T13:47:24.156Z,3.72
2019-04-05T13:50:00.356Z,3.84
2019-04-05T13:52:34.888Z,3.88
2019-04-05T13:55:11.297Z,3.97
2019-04-05T13:57:46.665Z,3.89
2019-04-05T14:00:23.303Z,3.84
2019-04-05T14:02:57.636Z,3.83
2019-04-05T14:05:31.569Z,3.76
2019-04-05T14:08:10.319Z,3.82
2019-04-05T14:10:42.865Z,3.73
2019-04-05T14:13:17.855Z,3.92
2019-04-05T14:15:52.043Z,3.88
2019-04-05T14:18:26.081Z,3.83
2019-04-05T14:21:00.396Z,3.61
2019-04-05T14:23:34.738Z,3.49
2019-04-05T14:26:08.737Z,3.39
2019-04-05T14:28:48.616Z,3.62
2019-04-05T14:31:32.406Z,3.50
2019-04-05T14:34:11.001Z,3.32
2019-04-05T14:36:46.248Z,3.41
2019-04-05T14:39:20.403Z,3.27
2019-04-05T14:42:08.761Z,3.08
2019-04-05T14:44:33.915Z,2.99
2019-04-05T14:47:08.204Z,3.25
2019-04-05T14:49:43.453Z,3.21
2019-04-05T14:52:17.981Z,3.09
2019-04-05T14:54:52.081Z,2.99
2019-04-05T14:57:45.211Z,2.94
2019-04-05T15:00:19.936Z,2.98
2019-04-05T15:02:55.508Z,2.93
2019-04-05T15:05:30.516Z,2.83
2019-04-05T15:08:06.561Z,3.04
2019-04-05T15:10:42.312Z,2.94
2019-04-05T15:13:16.472Z,2.90
2019-04-05T15:18:29.269Z,2.75
2019-04-05T15:21:05.494Z,2.66
2019-04-05T15:23:41.179Z,2.80
2019-04-05T15:26:14.009Z,2.63
2019-04-05T15:28:48.165Z,2.56
2019-04-05T15:31:25.750Z,2.68
2019-04-05T15:33:57.810Z,2.70
2019-04-05T15:36:33.838Z,2.65
2019-04-05T15:39:09.492Z,2.61
2019-04-05T15:41:43.347Z,2.66
2019-04-05T15:44:17.228Z,2.56
2019-04-05T15:46:52.973Z,2.16
2019-04-05T15:49:26.051Z,2.12
2019-04-05T15:51:59.629Z,2.34
2019-04-05T15:54:33.812Z,2.26
2019-04-05T15:57:08.820Z,2.16
2019-04-05T15:59:45.670Z,2.17
2019-04-05T16:02:19.404Z,2.32
2019-04-05T16:04:52.834Z,2.17
2019-04-05T16:07:26.630Z,2.19
2019-04-05T16:10:00.274Z,2.27
2019-04-05T16:12:33.893Z,2.17
2019-04-05T16:15:08.527Z,2.12
2019-04-05T16:17:43.604Z,1.97
2019-04-05T16:20:17.901Z,2.00
2019-04-05T16:22:51.661Z,2.09
2019-04-05T16:25:37.894Z,2.11
2019-04-05T16:28:11.579Z,2.20
2019-04-05T16:30:48.591Z,2.09
2019-04-05T16:33:22.297Z,1.91
2019-04-05T16:35:55.807Z,2.02
2019-04-05T16:38:31.791Z,1.83
2019-04-05T16:41:05.463Z,1.79
2019-04-05T16:43:39.174Z,1.93
2019-04-05T16:46:14.041Z,1.91
2019-04-05T16:48:47.793Z,1.78
2019-04-05T16:51:21.794Z,1.62
2019-04-05T16:53:56.828Z,1.62
2019-04-05T16:56:30.650Z,1.64
2019-04-05T16:59:04.917Z,1.94
2019-04-05T17:01:39.429Z,1.71
2019-04-05T17:04:12.838Z,1.69
2019-04-05T17:06:46.863Z,1.83
2019-04-05T17:09:21.005Z,1.79
2019-04-05T17:11:56.776Z,1.68
2019-04-05T17:14:30.842Z,1.66
2019-04-05T17:17:06.609Z,1.75
2019-04-05T17:19:41.344Z,1.59
2019-04-05T17:22:15.463Z,1.70
2019-04-05T17:24:49.678Z,1.59
2019-04-05T17:27:23.969Z,1.42
2019-04-05T17:29:58.867Z,1.31
2019-04-05T17:32:33.447Z,1.42
2019-04-05T17:35:08.486Z,1.56
2019-04-05T17:37:42.249Z,1.51
2019-04-05T17:40:15.786Z,1.37
2019-04-05T17:42:50.298Z,1.46
2019-04-05T17:45:24.593Z,1.33
2019-04-05T17:47:58.723Z,1.32
2019-04-05T17:50:37.231Z,1.46
2019-04-05T17:53:13.257Z,1.51
2019-04-05T17:55:46.170Z,1.53
2019-04-05T17:58:20.773Z,1.45
2019-04-05T18:00:56.213Z,1.43
2019-04-05T18:03:29.755Z,1.24
2019-04-05T18:06:03.244Z,1.13
2019-04-05T18:08:37.215Z,1.10
2019-04-05T18:11:12.342Z,1.12
2019-04-05T18:13:45.892Z,1.09
2019-04-05T18:16:20.918Z,1.04
2019-04-05T18:18:57.117Z,1.18
2019-04-05T18:21:30.890Z,0.94
2019-04-05T18:24:04.922Z,1.17
2019-04-05T18:26:39.168Z,0.95
2019-04-05T18:29:13.054Z,1.11
2019-04-05T18:31:46.975Z,1.09
2019-04-05T18:34:20.896Z,0.88
2019-04-05T18:36:54.941Z,0.92
2019-04-05T18:39:29.855Z,0.85
2019-04-05T18:42:04.346Z,1.02
2019-04-05T18:44:38.126Z,0.92
2019-04-05T18:47:12.759Z,0.81
2019-04-05T18:49:46.578Z,0.94
2019-04-05T18:52:21.662Z,1.04
2019-04-05T18:54:56.090Z,0.85
2019-04-05T18:57:30.485Z,0.92
2019-04-05T19:00:06.289Z,0.94
2019-04-05T19:02:42.395Z,0.74
2019-04-05T19:05:17.487Z,0.65
2019-04-05T19:07:52.391Z,0.72
2019-04-05T19:10:37.019Z,0.58
2019-04-05T19:13:03.087Z,0.82
2019-04-05T19:15:37.275Z,0.73
2019-04-05T19:18:11.113Z,0.73
2019-04-05T19:20:44.826Z,0.73
2019-04-05T19:23:18.209Z,0.65
2019-04-05T19:25:53.771Z,0.85
2019-04-05T19:28:28.143Z,0.74
2019-04-05T19:49:09.285Z,0.77
2019-04-05T19:51:42.857Z,0.70
2019-04-05T19:54:16.091Z,0.71
2019-04-05T19:56:49.914Z,0.75
2019-04-05T19:59:23.436Z,0.86
2019-04-05T20:01:57.600Z,1.00
2019-04-05T20:04:31.090Z,0.92
2019-04-05T20:07:04.566Z,1.01
2019-04-05T20:09:38.634Z,1.19
2019-04-05T20:12:12.119Z,1.26
2019-04-05T20:14:46.212Z,1.27
2019-04-05T20:17:20.205Z,1.33
2019-04-05T20:19:55.331Z,1.34
2019-04-05T20:22:29.164Z,1.43
2019-04-05T20:25:04.537Z,1.37
2019-04-05T20:27:38.341Z,1.43
2019-04-05T20:30:12.653Z,1.41
2019-04-05T20:32:47.639Z,1.51
2019-04-05T20:35:21.519Z,1.46
2019-04-05T20:37:55.243Z,1.28
2019-04-05T20:40:29.250Z,1.42
2019-04-05T20:43:04.467Z,1.40
2019-04-05T20:45:39.541Z,1.37
2019-04-05T20:48:13.259Z,1.27
2019-04-05T20:50:46.749Z,1.27
2019-04-05T20:53:20.308Z,1.20
2019-04-05T20:55:54.159Z,1.31
2019-04-05T20:58:29.484Z,1.21
2019-04-05T21:01:03.151Z,1.25
2019-04-05T21:03:36.942Z,1.30
2019-04-05T21:06:10.709Z,1.40
2019-04-05T21:08:44.377Z,1.49
2019-04-05T21:11:17.794Z,1.77
2019-04-05T21:13:51.745Z,1.77
2019-04-05T21:16:25.482Z,1.79
2019-04-05T21:18:59.105Z,1.80
2019-04-05T21:21:32.857Z,1.78
2019-04-05T21:24:06.838Z,1.70
2019-04-05T21:26:40.684Z,1.88
2019-04-05T21:29:14.116Z,1.90
2019-04-05T21:31:48.438Z,2.01
2019-04-05T21:34:23.600Z,2.09
2019-04-05T21:36:57.991Z,2.16
2019-04-05T21:39:31.706Z,2.28
2019-04-05T21:42:05.431Z,2.19
2019-04-05T21:44:38.991Z,2.28
2019-04-05T21:47:12.563Z,2.31
2019-04-05T21:49:47.604Z,2.45
2019-04-05T21:52:21.490Z,2.47
2019-04-05T21:54:56.816Z,2.50
2019-04-05T21:57:30.785Z,2.48
2019-04-05T22:00:04.482Z,2.57
2019-04-05T22:02:38.175Z,2.52
2019-04-05T22:05:11.987Z,2.50
2019-04-05T22:07:45.739Z,2.56
2019-04-05T22:10:19.668Z,2.63
2019-04-05T22:12:53.493Z,2.71
2019-04-05T22:15:27.450Z,2.77
2019-04-05T22:18:01.148Z,2.72
2019-04-05T22:20:34.913Z,2.95
2019-04-05T22:23:08.539Z,2.97
2019-04-05T22:25:42.320Z,3.08
2019-04-05T22:28:16.488Z,2.99
2019-04-05T22:30:50.509Z,3.17
2019-04-05T22:33:24.348Z,3.26
2019-04-05T22:36:00.016Z,3.50
2019-04-05T22:38:33.725Z,3.88
2019-04-05T22:41:07.423Z,4.29
2019-04-05T22:43:41.622Z,5.33
2019-04-05T22:46:15.205Z,5.08
2019-04-05T22:48:49.128Z,5.33
2019-04-05T22:51:23.089Z,5.49
2019-04-05T22:53:56.486Z,5.92
2019-04-05T22:56:31.396Z,6.40
2019-04-05T22:59:05.262Z,6.25
2019-04-05T23:01:38.680Z,5.85
2019-04-05T23:04:12.787Z,5.78
2019-04-05T23:06:46.404Z,5.41
2019-04-05T23:09:20.146Z,5.03
2019-04-05T23:11:54.976Z,4.91
2019-04-05T23:14:28.908Z,4.75
2019-04-05T23:17:02.367Z,4.89
2019-04-05T23:19:37.840Z,4.63
2019-04-05T23:22:11.611Z,4.43
2019-04-05T23:24:45.207Z,4.53
2019-04-05T23:27:18.994Z,4.43
2019-04-05T23:29:54.249Z,4.36
2019-04-05T23:32:27.877Z,4.56
2019-04-05T23:35:04.682Z,4.45
2019-04-05T23:37:43.036Z,4.81
2019-04-05T23:40:20.270Z,4.98
2019-04-05T23:42:55.635Z,4.99
2019-04-05T23:45:32.073Z,4.99
2019-04-05T23:48:07.661Z,4.90
2019-04-05T23:50:43.261Z,4.94
2019-04-05T23:53:18.979Z,5.28
2019-04-05T23:55:55.253Z,5.35
2019-04-05T23:58:30.275Z,5.25
